Latest Weather Observations for Lismore Airport

IDN60801

Issued at 11:33 am EST Saturday 28 May 2016 (issued every 30 minutes, with the page automatically refreshed every 10 minutes)

About weather observations | Map of weather stations | Latest weather observations for NSW | Other Formats
Station Details ID: 058214 Name: LISMORE AIRPORT AWS Lat: -28.83 Lon: 153.26 Height: 9.21 m
Data from the previous 72 hours. | See also: Recent months at Lismore Airport
Date/Time
EST
Temp
°C
App
Temp
°C
Dew
Point
Rel
Hum
%
Delta-T
°C
Wind Press
QNH
hPa
Press
MSL
hPa
Rain
since 9 am
mm
Dir
 
Spd
km/h
Gust
km/h
Spd
kts
Gust
kts
28/11:00am 19.4 15.5 5.5 40 6.8 NW 15 30 8 16 1010.9 1010.9 0.0
28/10:30am 19.0 14.6 6.5 44 6.2 NW 19 30 10 16 1011.6 1011.6 0.0
28/10:00am 18.3 12.7 5.2 42 6.3 NW 24 33 13 18 1011.9 1011.9 0.0
28/09:30am 17.6 12.7 5.2 44 6.0 NW 20 30 11 16 1012.2 1012.2 0.0
28/09:00am 16.6 12.1 5.9 49 5.2 NNW 19 24 10 13 1012.3 1012.3 1.8
28/08:30am 14.3 10.6 7.8 65 3.2 N 17 20 9 11 1012.4 1012.4 1.8
28/08:00am 12.4 8.0 6.5 67 2.8 NNW 19 20 10 11 1012.4 1012.4 1.8
28/07:30am 9.9 5.8 6.1 77 1.8 N 17 20 9 11 1011.8 1011.8 1.8
28/07:00am 7.8 3.9 5.3 84 1.1 N 15 19 8 10 1011.7 1011.7 1.8
28/06:30am 6.8 3.5 4.3 84 1.1 NNE 11 13 6 7 1011.5 1011.5 1.8
28/06:00am 8.2 4.9 4.6 78 1.6 NNW 11 17 6 9 1011.3 1011.3 1.8
28/05:30am 9.5 5.4 4.3 70 2.3 NW 15 20 8 11 1011.1 1011.1 1.8
28/05:00am 12.0 7.1 5.2 63 3.1 NW 20 26 11 14 1010.8 1010.8 1.8
28/04:30am 8.7 4.4 5.1 78 1.6 N 17 20 9 11 1010.6 1010.6 1.8
28/04:00am 10.1 6.7 4.0 66 2.7 NNW 11 15 6 8 1010.7 1010.7 1.8
28/03:30am 12.8 8.0 4.5 57 3.8 NW 19 24 10 13 1010.6 1010.6 1.8
28/03:00am 13.0 8.6 4.7 57 3.8 NW 17 22 9 12 1010.6 1010.6 1.8
28/02:30am 12.8 8.8 5.0 59 3.6 NW 15 24 8 13 1010.6 1010.6 1.8
28/02:00am 12.0 7.6 4.5 60 3.4 NW 17 22 9 12 1010.9 1010.9 1.8
28/01:30am 11.9 7.6 5.1 63 3.1 NW 17 22 9 12 1010.5 1010.5 1.8
28/01:00am 12.1 9.7 4.3 59 3.5 WNW 6 15 3 8 1010.7 1010.7 1.8
28/12:30am 13.3 9.2 4.5 55 4.0 WNW 15 22 8 12 1010.4 1010.4 1.8
28/12:00am 14.6 9.2 4.3 50 4.8 WNW 22 39 12 21 1010.4 1010.4 1.8
 
Date/Time
EST
Temp
°C
App
Temp
°C
Dew
Point
Rel
Hum
%
Delta-T
°C
Wind Press
QNH
hPa
Press
MSL
hPa
Rain
since 9 am
mm
Dir
 
Spd
km/h
Gust
km/h
Spd
kts
Gust
kts
27/11:30pm 14.0 9.0 3.8 50 4.6 WNW 19 24 10 13 1010.6 1010.6 1.8
27/11:00pm 13.6 9.5 4.2 53 4.3 NW 15 22 8 12 1010.5 1010.5 1.8
27/10:30pm 15.0 10.5 4.1 48 5.0 WNW 17 26 9 14 1010.4 1010.4 1.8
27/10:00pm 15.4 10.4 4.8 49 5.0 WNW 20 28 11 15 1009.9 1009.9 1.8
27/09:30pm 14.6 10.1 4.3 50 4.8 NW 17 20 9 11 1009.9 1009.9 1.8
27/09:00pm 16.1 11.0 3.9 44 5.7 NW 20 26 11 14 1009.6 1009.6 1.8
27/08:30pm 16.5 11.4 3.2 41 6.1 WNW 19 26 10 14 1009.3 1009.3 1.8
27/08:00pm 16.5 11.0 4.2 44 5.8 WNW 22 30 12 16 1009.2 1009.2 1.8
27/07:30pm 16.4 12.3 4.4 45 5.6 NW 15 20 8 11 1008.7 1008.7 1.8
27/07:00pm 16.7 13.0 4.7 45 5.7 NW 13 20 7 11 1008.4 1008.4 1.8
27/06:30pm 17.0 13.3 4.7 44 5.8 NW 13 28 7 15 1007.4 1007.4 1.8
27/06:00pm 18.0 13.9 4.6 41 6.4 NW 15 19 8 10 1007.1 1007.1 1.8
27/05:30pm 18.6 15.0 4.8 40 6.6 WNW 13 22 7 12 1006.6 1006.6 1.8
27/05:00pm 20.3 15.3 4.8 36 7.6 WNW 20 32 11 17 1006.2 1006.2 1.8
27/04:30pm 21.3 14.7 4.0 32 8.4 WNW 28 44 15 24 1005.9 1005.9 1.8
27/04:00pm 22.2 14.9 4.7 32 8.6 WNW 32 43 17 23 1005.1 1005.1 1.8
27/03:30pm 22.9 16.1 4.9 31 8.9 WNW 30 43 16 23 1004.9 1004.9 1.8
27/03:00pm 23.3 17.0 5.7 32 8.9 W 28 46 15 25 1004.6 1004.6 1.8
27/02:36pm 23.6 16.5 6.4 33 8.8 WNW 33 52 18 28 1004.7 1004.7 1.8
27/02:30pm 23.6 15.7 6.4 33 8.8 WNW 37 52 20 28 1004.6 1004.6 1.8
27/02:00pm 23.8 16.8 6.1 32 9.1 WNW 32 43 17 23 1004.5 1004.5 1.8
27/01:30pm 23.9 17.4 6.7 33 8.9 WNW 30 39 16 21 1004.3 1004.3 1.8
27/01:02pm 23.9 16.9 6.2 32 9.1 WNW 32 52 17 28 1004.7 1004.7 1.8
27/01:00pm 24.0 17.3 7.2 34 8.8 WNW 32 48 17 26 1004.7 1004.7 1.8
27/12:51pm 23.9 17.8 6.7 33 8.9 W 28 48 15 26 1004.9 1004.9 1.8
27/12:30pm 23.8 17.6 9.4 40 7.8 W 32 46 17 25 1005.1 1005.1 1.8
27/12:00pm 23.3 17.3 10.0 43 7.3 W 32 46 17 25 1005.6 1005.6 1.8
27/11:30am 23.2 17.3 10.3 44 7.1 WNW 32 43 17 23 1005.8 1005.8 1.8
27/11:15am 22.7 17.5 10.2 45 6.8 WNW 28 50 15 27 1005.9 1005.9 1.6
27/11:00am 22.7 17.5 11.7 49 6.2 WNW 30 44 16 24 1006.3 1006.3 1.0
27/10:48am 22.4 17.6 11.8 51 6.0 WNW 28 50 15 27 1006.2 1006.2 0.2
27/10:30am 21.9 17.5 11.6 52 5.7 NW 26 41 14 22 1006.6 1006.6 0.2
27/10:00am 21.4 16.9 12.5 57 5.0 WNW 28 44 15 24 1007.0 1007.0 0.2
27/09:30am 20.8 16.9 12.2 58 4.8 NW 24 35 13 19 1007.6 1007.6 0.2
27/09:00am 20.1 17.1 13.6 66 3.7 NW 22 35 12 19 1007.7 1007.7 3.2
27/08:30am 19.0 16.7 13.0 68 3.4 NNW 17 30 9 16 1007.5 1007.5 3.2
27/08:00am 18.1 15.9 13.4 74 2.7 NNW 17 30 9 16 1007.0 1007.0 3.2
27/07:30am 18.3 15.0 12.7 70 3.1 NW 22 30 12 16 1006.5 1006.5 3.2
27/07:00am 18.3 16.8 14.2 77 2.4 NW 15 26 8 14 1006.4 1006.4 3.2
27/06:30am 17.6 18.6 15.4 87 1.3 N 4 9 2 5 1005.6 1005.6 3.2
27/06:00am 17.1 17.7 15.8 92 0.8 NNE 7 9 4 5 1005.6 1005.6 3.2
27/05:30am 17.5 17.5 15.3 87 1.3 NNW 9 11 5 6 1005.6 1005.6 3.2
27/05:00am 18.3 17.7 15.7 85 1.5 NW 13 17 7 9 1005.3 1005.3 3.0
27/04:30am 17.4 17.7 15.9 91 0.9 NNW 9 17 5 9 1005.2 1005.2 3.0
27/04:00am 17.5 17.4 16.0 91 0.9 NNW 11 13 6 7 1005.2 1005.2 3.0
27/03:30am 17.4 17.3 15.9 91 0.9 N 11 13 6 7 1005.5 1005.5 3.0
27/03:00am 16.9 16.2 15.4 91 0.9 N 13 17 7 9 1005.4 1005.4 3.0
27/02:30am 16.9 16.3 15.6 92 0.8 NNW 13 15 7 8 1005.2 1005.2 3.0
27/02:00am 15.7 15.2 14.9 95 0.5 NNW 11 13 6 7 1004.7 1004.7 2.8
27/01:30am 15.3 13.5 14.5 95 0.5 N 17 20 9 11 1005.0 1005.0 2.8
27/01:00am 15.0 13.1 14.2 95 0.5 N 17 20 9 11 1005.0 1005.0 2.8
27/12:30am 15.2 13.0 14.4 95 0.5 NNW 19 24 10 13 1005.5 1005.5 2.8
27/12:00am 15.1 13.2 14.3 95 0.5 N 17 20 9 11 1006.0 1006.0 2.8
 
Date/Time
EST
Temp
°C
App
Temp
°C
Dew
Point
Rel
Hum
%
Delta-T
°C
Wind Press
QNH
hPa
Press
MSL
hPa
Rain
since 9 am
mm
Dir
 
Spd
km/h
Gust
km/h
Spd
kts
Gust
kts
26/11:30pm 15.0 14.3 14.2 95 0.5 N 11 13 6 7 1007.1 1007.1 2.6
26/11:00pm 15.0 13.9 14.2 95 0.5 NNE 13 15 7 8 1007.8 1007.8 2.6
26/10:30pm 15.2 14.8 14.1 93 0.6 ENE 9 13 5 7 1008.9 1008.9 2.6
26/10:00pm 15.8 15.1 14.2 90 0.9 WSW 11 20 6 11 1009.4 1009.4 2.2
26/09:30pm 14.7 15.1 13.6 93 0.6 SW 4 11 2 6 1007.6 1007.6 2.0
26/09:05pm 15.4 13.4 13.9 91 0.8 SSW 17 32 9 17 1008.2 1008.2 2.0
26/09:00pm 15.6 11.9 13.8 89 1.0 SW 26 39 14 21 1008.4 1008.4 1.8
26/08:52pm 15.9 9.7 13.9 88 1.1 WSW 39 69 21 37 1009.3 1009.3 1.4
26/08:42pm 17.2 15.5 14.8 86 1.4 WSW 17 56 9 30 1009.0 1009.0 0.2
26/08:41pm 17.2 16.4 15.0 87 1.3 SW 13 39 7 21 1008.4 1008.4 0.2
26/08:30pm 17.1 18.1 14.4 84 1.5 WNW 2 11 1 6 1006.4 1006.4 0.0
26/08:00pm 17.7 18.1 13.8 78 2.2 WSW 4 11 2 6 1006.2 1006.2 0.0
26/07:30pm 18.1 16.0 13.6 75 2.6 SSW 17 20 9 11 1006.4 1006.4 0.0
26/07:00pm 19.1 19.0 13.3 69 3.3 ENE 6 9 3 5 1006.7 1006.7 0.0
26/06:30pm 19.5 20.4 13.0 66 3.7 CALM 0 11 0 6 1006.4 1006.4 0.0
26/06:00pm 20.8 21.6 12.5 59 4.7 CALM 0 6 0 3 1006.1 1006.1 0.0
26/05:30pm 22.2 19.8 12.5 54 5.5 NE 17 22 9 12 1005.8 1005.8 0.0
26/05:00pm 23.1 20.5 12.1 50 6.3 NE 17 22 9 12 1005.2 1005.2 0.0
26/04:30pm 23.3 20.7 10.7 45 7.0 N 15 17 8 9 1005.2 1005.2 0.0
26/04:00pm 24.4 22.4 11.4 44 7.3 N 13 17 7 9 1005.7 1005.7 0.0
26/03:30pm 25.3 21.4 9.6 37 8.6 N 20 26 11 14 1005.6 1005.6 0.0
26/03:00pm 26.0 22.8 9.8 36 9.0 NNW 17 22 9 12 1005.8 1005.8 0.0
26/02:30pm 25.5 24.5 13.4 47 7.1 NNE 11 15 6 8 1006.0 1006.0 0.0
26/02:00pm 24.8 22.0 9.9 39 8.2 N 15 26 8 14 1006.4 1006.4 0.0
26/01:30pm 26.2 24.2 11.5 40 8.4 NNE 13 15 7 8 1006.9 1006.9 0.0
26/01:00pm 25.6 21.4 8.1 33 9.4 NNW 20 30 11 16 1007.4 1007.4 0.0
26/12:30pm 27.6 23.5 8.5 30 10.4 N 20 32 11 17 1007.9 1007.9 0.0
26/12:00pm 26.1 24.5 10.3 37 8.8 NE 9 13 5 7 1008.8 1008.8 0.0
26/11:30am 23.3 22.8 9.3 41 7.6 NNE 2 9 1 5 1010.0 1010.0 0.0
26/11:00am 22.3 21.4 10.8 48 6.3 N 6 9 3 5 1011.0 1011.0 0.0
26/10:30am 19.3 17.1 9.5 53 5.2 N 11 13 6 7 1011.8 1011.8 0.0
26/10:00am 17.0 14.2 8.4 57 4.4 N 13 17 7 9 1012.3 1012.3 0.0
26/09:30am 12.8 11.0 9.3 79 1.8 N 9 13 5 7 1012.8 1012.8 0.0
26/09:00am 10.8 8.5 8.9 88 0.9 N 11 15 6 8 1013.3 1013.3 0.0
26/08:30am 8.6 5.9 7.5 93 0.5 NNE 11 13 6 7 1013.7 1013.7 0.0
26/08:00am 7.8 5.0 7.1 95 0.3 N 11 15 6 8 1013.7 1013.7 0.0
26/07:30am 6.4 3.4 5.8 96 0.3 N 11 13 6 7 1013.9 1013.9 0.0
26/07:00am 4.9 0.5 4.6 98 0.1 N 17 20 9 11 1013.6 1013.6 0.0
26/06:30am 3.8 0.3 3.4 97 0.2 NNE 11 15 6 8 1013.6 1013.6 0.0
26/06:00am 4.0 0.5 3.6 97 0.2 N 11 13 6 7 1013.7 1013.7 0.0
26/05:30am 4.3 0.9 3.9 97 0.2 N 11 15 6 8 1013.7 1013.7 0.0
26/05:00am 4.4 0.6 4.0 97 0.2 NNE 13 15 7 8 1013.6 1013.6 0.0
26/04:30am 4.4 0.2 4.0 97 0.2 N 15 19 8 10 1013.5 1013.5 0.0
26/04:00am 4.6 0.1 4.2 97 0.2 N 17 19 9 10 1013.7 1013.7 0.0
26/03:30am 4.8 1.1 4.4 97 0.2 NNE 13 15 7 8 1013.9 1013.9 0.0
26/03:00am 4.7 1.4 4.3 97 0.2 N 11 13 6 7 1014.4 1014.4 0.0
26/02:30am 5.6 1.7 5.2 97 0.2 N 15 19 8 10 1014.6 1014.6 0.0
26/02:06am 5.6 1.3 5.3 98 0.1 N 17 20 9 11 1014.8 1014.8 0.0
26/02:00am 5.4 1.4 5.1 98 0.1 N 15 17 8 9 1014.9 1014.9 0.0
26/01:47am 4.9 0.8 4.5 97 0.2 N 15 17 8 9 1015.1 1015.1 0.0
26/01:30am 4.9 1.2 4.5 97 0.2 N 13 15 7 8 1015.4 1015.4 0.0
26/01:00am 6.0 2.5 5.6 97 0.2 N 13 15 7 8 1015.6 1015.6 0.0
26/12:57am 5.8 2.3 5.4 97 0.2 N 13 15 7 8 1015.6 1015.6 0.0
26/12:37am 5.7 2.9 5.0 95 0.3 N 9 11 5 6 1015.8 1015.8 0.0
26/12:30am 6.2 3.1 5.6 96 0.3 N 11 15 6 8 1015.9 1015.9 0.0
26/12:00am 6.7 3.3 6.1 96 0.3 N 13 15 7 8 1016.0 1016.0 0.0
 
Date/Time
EST
Temp
°C
App
Temp
°C
Dew
Point
Rel
Hum
%
Delta-T
°C
Wind Press
QNH
hPa
Press
MSL
hPa
Rain
since 9 am
mm
Dir
 
Spd
km/h
Gust
km/h
Spd
kts
Gust
kts
25/11:30pm 7.1 4.2 6.5 96 0.3 N 11 13 6 7 1016.2 1016.2 0.0
25/11:00pm 6.7 3.7 5.8 94 0.4 N 11 13 6 7 1016.2 1016.2 0.0
25/10:30pm 7.5 4.6 6.3 92 0.5 NNE 11 15 6 8 1016.4 1016.4 0.0
25/10:00pm 8.1 6.2 6.9 92 0.6 N 6 9 3 5 1016.4 1016.4 0.0
25/09:30pm 9.6 6.2 7.7 88 0.9 NNW 15 17 8 9 1016.2 1016.2 0.0
25/09:00pm 9.4 8.0 7.3 87 1.0 N 4 11 2 6 1016.2 1016.2 0.0
25/08:30pm 10.3 7.6 7.2 81 1.5 N 11 15 6 8 1016.2 1016.2 0.0
25/08:00pm 10.9 7.8 7.4 79 1.7 N 13 15 7 8 1016.0 1016.0 0.0
25/07:30pm 13.3 10.1 8.6 73 2.4 N 15 17 8 9 1015.8 1015.8 0.0
25/07:00pm 12.1 9.2 8.0 76 2.0 N 13 13 7 7 1015.8 1015.8 0.0
25/06:30pm 12.6 9.9 7.5 71 2.5 N 11 13 6 7 1015.5 1015.5 0.0
25/06:00pm 13.9 11.3 6.3 60 3.6 NNE 9 15 5 8 1015.4 1015.4 0.0
25/05:30pm 17.5 14.1 7.8 53 4.9 NE 15 20 8 11 1015.1 1015.1 0.0
25/05:00pm 18.1 14.5 3.2 37 6.9 NE 11 15 6 8 1015.0 1015.0 0.0
25/04:30pm 20.8 16.7 2.1 29 8.7 NE 13 17 7 9 1014.9 1014.9 0.0
25/04:00pm 22.7 19.0 2.2 26 9.7 NE 11 15 6 8 1014.7 1014.7 0.0
25/03:30pm 23.7 20.6 1.4 23 10.4 NE 7 13 4 7 1014.7 1014.7 0.0
25/03:00pm 24.7 22.4 0.3 20 11.3 N 2 9 1 5 1015.1 1015.1 0.0
25/02:30pm 24.8 22.8 2.3 23 10.8 E 2 9 1 5 1015.2 1015.2 0.0
25/02:00pm 24.0 22.2 1.0 22 10.7 CALM 0 0 0 0 1015.4 1015.4 0.0
25/01:30pm 23.5 21.0 1.8 24 10.2 N 4 9 2 5 1015.7 1015.7 0.0
25/01:00pm 23.8 20.9 1.4 23 10.5 NNE 6 11 3 6 1016.0 1016.0 0.0
25/12:30pm 23.7 21.2 1.4 23 10.4 ENE 4 9 2 5 1016.4 1016.4 0.0
25/12:00pm 22.7 20.2 1.7 25 9.8 E 4 9 2 5 1016.8 1016.8 0.0

Other Formats:

Comma delimited format used in spreadsheet applications
http://www.bom.gov.au/fwo/IDN60801/IDN60801.94572.axf

JavaScript Object Notation format (JSON) in row-major order
http://www.bom.gov.au/fwo/IDN60801/IDN60801.94572.json